createdAt,value
2017-12-27T00:00:26.018Z,98815.50
2017-12-27T00:06:06.127Z,98792.33
2017-12-27T00:08:40.070Z,98785.00
2017-12-27T00:11:13.322Z,98774.77
2017-12-27T00:13:46.535Z,98764.40
2017-12-27T00:16:19.638Z,98752.18
2017-12-27T00:18:55.305Z,98743.64
2017-12-27T00:35:08.588Z,98710.11
2017-12-27T00:37:38.064Z,98704.80
2017-12-27T00:40:08.594Z,98696.94
2017-12-27T00:42:36.194Z,98692.14
2017-12-27T00:45:05.109Z,98689.87
2017-12-27T00:47:36.521Z,98681.49
2017-12-27T00:50:06.537Z,98678.98
2017-12-27T00:52:35.903Z,98671.82
2017-12-27T00:55:08.120Z,98669.02
2017-12-27T00:57:40.959Z,98645.48
2017-12-27T01:00:12.802Z,98635.66
2017-12-27T01:02:42.226Z,98633.78
2017-12-27T01:05:10.727Z,98626.48
2017-12-27T01:07:41.845Z,98614.78
2017-12-27T01:10:10.378Z,98598.98
2017-12-27T01:12:39.693Z,98586.79
2017-12-27T01:15:08.505Z,98585.84
2017-12-27T01:17:37.774Z,98573.36
2017-12-27T01:20:08.491Z,98569.14
2017-12-27T01:22:37.235Z,98568.97
2017-12-27T01:25:07.023Z,98554.23
2017-12-27T01:27:35.278Z,98536.97
2017-12-27T01:30:03.601Z,98526.23
2017-12-27T01:32:38.585Z,98529.52
2017-12-27T01:35:06.573Z,98525.80
2017-12-27T01:37:37.492Z,98531.25
2017-12-27T01:40:13.461Z,98524.32
2017-12-27T01:42:43.865Z,98522.87
2017-12-27T01:45:12.370Z,98504.20
2017-12-27T01:47:42.078Z,98498.45
2017-12-27T01:50:10.876Z,98497.13
2017-12-27T01:52:43.396Z,98487.94
2017-12-27T01:55:12.859Z,98483.78
2017-12-27T01:57:41.950Z,98469.94
2017-12-27T02:00:11.334Z,98475.52
2017-12-27T02:02:41.695Z,98462.20
2017-12-27T02:05:10.778Z,98457.15
2017-12-27T02:07:39.535Z,98457.95
2017-12-27T02:10:07.143Z,98453.16
2017-12-27T02:12:35.861Z,98444.97
2017-12-27T02:15:05.985Z,98437.37
2017-12-27T02:17:34.901Z,98426.45
2017-12-27T02:20:04.058Z,98422.23
2017-12-27T02:22:31.665Z,98415.48
2017-12-27T02:25:00.594Z,98404.70
2017-12-27T02:27:29.010Z,98400.09
2017-12-27T02:29:58.414Z,98383.05
2017-12-27T02:32:29.270Z,98377.63
2017-12-27T02:35:01.495Z,98374.62
2017-12-27T02:37:32.121Z,98361.34
2017-12-27T02:43:01.233Z,98348.73
2017-12-27T02:45:30.021Z,98334.97
2017-12-27T02:47:58.799Z,98335.62
2017-12-27T02:50:27.613Z,98333.78
2017-12-27T02:52:57.779Z,98328.25
2017-12-27T02:55:25.356Z,98321.68
2017-12-27T02:57:53.965Z,98317.41
2017-12-27T03:00:26.266Z,98313.16
2017-12-27T03:02:55.347Z,98298.81
2017-12-27T03:05:24.870Z,98289.51
2017-12-27T03:07:53.750Z,98278.00
2017-12-27T03:10:21.400Z,98271.10
2017-12-27T03:12:54.498Z,98273.50
2017-12-27T03:15:23.046Z,98264.64
2017-12-27T03:17:52.097Z,98258.52
2017-12-27T03:20:20.566Z,98252.95
2017-12-27T03:22:49.365Z,98238.97
2017-12-27T03:25:20.665Z,98241.22
2017-12-27T03:27:49.333Z,98240.70
2017-12-27T03:30:18.069Z,98238.20
2017-12-27T03:32:45.697Z,98227.53
2017-12-27T03:35:15.507Z,98225.02
2017-12-27T03:37:48.275Z,98217.58
2017-12-27T03:40:17.629Z,98216.17
2017-12-27T03:42:51.673Z,98201.83
2017-12-27T03:45:19.263Z,98195.73
2017-12-27T03:47:50.220Z,98186.55
2017-12-27T03:50:17.830Z,98173.02
2017-12-27T03:52:46.901Z,98161.50
2017-12-27T03:55:15.063Z,98162.58
2017-12-27T03:57:44.385Z,98150.52
2017-12-27T04:00:11.985Z,98153.80
2017-12-27T04:02:43.987Z,98149.15
2017-12-27T04:05:19.019Z,98136.68
2017-12-27T04:07:50.121Z,98118.28
2017-12-27T04:10:18.165Z,98104.15
2017-12-27T04:12:46.313Z,98097.87
2017-12-27T04:15:15.682Z,98088.89
2017-12-27T04:17:43.885Z,98085.91
2017-12-27T04:20:16.018Z,98072.44
2017-12-27T04:22:44.765Z,98067.65
2017-12-27T04:25:14.259Z,98053.70
2017-12-27T04:27:45.452Z,98048.48
2017-12-27T04:30:15.993Z,98043.55
2017-12-27T04:32:45.319Z,98050.29
2017-12-27T04:35:15.373Z,98041.87
2017-12-27T04:37:42.949Z,98044.02
2017-12-27T04:40:13.534Z,98043.40
2017-12-27T04:42:42.224Z,98041.47
2017-12-27T04:45:10.781Z,98038.29
2017-12-27T04:47:41.362Z,98035.37
2017-12-27T04:50:14.522Z,98030.84
2017-12-27T04:52:42.111Z,98031.55
2017-12-27T04:55:09.797Z,98021.55
2017-12-27T04:57:38.245Z,98025.16
2017-12-27T05:00:08.331Z,98026.35
2017-12-27T05:02:42.054Z,98017.76
2017-12-27T05:05:10.644Z,98013.58
2017-12-27T05:07:39.585Z,98004.44
2017-12-27T05:10:10.742Z,98002.08
2017-12-27T05:12:39.127Z,97987.98
2017-12-27T05:15:09.718Z,97991.52
2017-12-27T05:17:42.006Z,97997.59
2017-12-27T05:20:11.243Z,97988.70
2017-12-27T05:22:41.838Z,97982.50
2017-12-27T05:25:11.990Z,97973.97
2017-12-27T05:27:40.246Z,97990.48
2017-12-27T05:30:11.322Z,97975.14
2017-12-27T05:32:40.968Z,97977.28
2017-12-27T05:35:09.786Z,97968.70
2017-12-27T05:37:40.558Z,97981.87
2017-12-27T05:40:10.419Z,97974.63
2017-12-27T05:42:39.287Z,97969.39
2017-12-27T05:45:13.294Z,97964.17
2017-12-27T05:47:42.041Z,97967.86
2017-12-27T05:50:17.562Z,97961.27
2017-12-27T05:52:51.180Z,97957.19
2017-12-27T05:55:18.797Z,97961.17
2017-12-27T05:57:46.849Z,97957.34
2017-12-27T06:00:16.821Z,97955.42
2017-12-27T06:02:48.150Z,97955.27
2017-12-27T06:05:16.544Z,97960.74
2017-12-27T06:07:46.901Z,97956.75
2017-12-27T06:10:21.013Z,97950.38
2017-12-27T06:12:51.191Z,97949.45
2017-12-27T06:15:20.531Z,97953.14
2017-12-27T06:17:51.579Z,97957.28
2017-12-27T06:20:20.425Z,97951.13
2017-12-27T06:22:49.329Z,97943.73
2017-12-27T06:25:16.935Z,97944.29
2017-12-27T06:27:46.174Z,97944.29
2017-12-27T06:30:15.287Z,97942.15
2017-12-27T06:32:45.211Z,97940.82
2017-12-27T06:35:14.562Z,97934.14
2017-12-27T06:37:46.330Z,97937.72
2017-12-27T06:40:14.498Z,97937.38
2017-12-27T06:42:43.899Z,97936.81
2017-12-27T06:45:16.682Z,97931.85
2017-12-27T06:47:45.870Z,97926.29
2017-12-27T06:50:14.966Z,97921.28
2017-12-27T06:52:46.622Z,97921.02
2017-12-27T06:55:15.045Z,97918.94
2017-12-27T06:57:42.760Z,97910.56
2017-12-27T07:00:11.945Z,97908.67
2017-12-27T07:02:46.161Z,97906.53
2017-12-27T07:05:13.735Z,97899.64
2017-12-27T07:07:42.158Z,97904.58
2017-12-27T07:10:10.133Z,97897.44
2017-12-27T07:12:40.521Z,97895.34
2017-12-27T07:15:08.822Z,97905.87
2017-12-27T07:17:38.190Z,97897.34
2017-12-27T07:20:06.472Z,97889.93
2017-12-27T07:22:34.474Z,97894.31
2017-12-27T07:25:05.578Z,97899.08
2017-12-27T07:27:35.225Z,97901.33
2017-12-27T07:30:03.812Z,97897.07
2017-12-27T07:32:34.509Z,97902.23
2017-12-27T07:35:03.613Z,97897.07
2017-12-27T07:37:32.421Z,97893.61
2017-12-27T07:40:01.769Z,97901.89
2017-12-27T07:42:31.918Z,97909.86
2017-12-27T07:45:01.381Z,97893.20
2017-12-27T07:47:30.617Z,97906.38
2017-12-27T07:50:00.106Z,97892.02
2017-12-27T07:52:30.149Z,97883.15
2017-12-27T07:54:58.951Z,97885.13
2017-12-27T07:57:30.860Z,97893.78
2017-12-27T08:00:00.573Z,97890.16
2017-12-27T08:02:32.055Z,97881.06
2017-12-27T08:05:02.056Z,97884.92
2017-12-27T08:07:32.649Z,97873.04
2017-12-27T08:10:01.156Z,97871.66
2017-12-27T08:12:32.069Z,97873.44
2017-12-27T08:15:00.512Z,97866.25
2017-12-27T08:17:30.110Z,97869.27
2017-12-27T08:19:59.349Z,97871.77
2017-12-27T08:22:30.066Z,97865.83
2017-12-27T08:24:58.314Z,97866.39
2017-12-27T08:27:28.253Z,97864.56
2017-12-27T08:29:58.411Z,97858.57
2017-12-27T08:32:27.740Z,97856.78
2017-12-27T08:34:57.294Z,97859.69
2017-12-27T08:37:26.458Z,97858.98
2017-12-27T08:39:56.153Z,97859.08
2017-12-27T08:42:27.029Z,97856.52
2017-12-27T08:44:56.223Z,97867.52
2017-12-27T08:47:29.052Z,97866.69
2017-12-27T08:49:57.360Z,97859.98
2017-12-27T08:52:29.381Z,97858.66
2017-12-27T08:54:58.973Z,97852.55
2017-12-27T08:57:26.590Z,97855.85
2017-12-27T08:59:56.431Z,97859.44
2017-12-27T09:02:27.605Z,97855.14
2017-12-27T09:04:55.182Z,97851.31
2017-12-27T09:07:24.470Z,97852.39
2017-12-27T09:09:53.353Z,97852.98
2017-12-27T09:12:21.728Z,97851.50
2017-12-27T09:14:49.303Z,97842.98
2017-12-27T09:17:18.770Z,97846.59
2017-12-27T09:19:48.815Z,97841.12
2017-12-27T09:22:18.925Z,97843.73
2017-12-27T09:24:48.430Z,97841.88
2017-12-27T09:27:17.145Z,97844.59
2017-12-27T09:29:46.370Z,97847.47
2017-12-27T09:32:15.161Z,97851.39
2017-12-27T09:34:44.906Z,97855.94
2017-12-27T09:37:13.195Z,97859.21
2017-12-27T09:39:41.567Z,97862.17
2017-12-27T09:42:10.357Z,97865.39
2017-12-27T09:44:38.788Z,97864.46
2017-12-27T09:47:07.919Z,97863.41
2017-12-27T09:49:39.229Z,97864.52
2017-12-27T09:52:08.405Z,97873.32
2017-12-27T09:54:36.758Z,97872.80
2017-12-27T09:57:05.002Z,97870.14
2017-12-27T09:59:34.464Z,97862.59
2017-12-27T10:02:02.082Z,97866.83
2017-12-27T10:04:33.372Z,97870.72
2017-12-27T10:07:02.836Z,97855.33
2017-12-27T10:09:31.341Z,97860.40
2017-12-27T10:11:59.828Z,97852.83
2017-12-27T10:14:28.490Z,97857.02
2017-12-27T10:16:56.107Z,97857.48
2017-12-27T10:19:24.783Z,97852.11
2017-12-27T10:21:52.545Z,97841.70
2017-12-27T10:24:20.510Z,97847.88
2017-12-27T10:26:48.153Z,97855.95
2017-12-27T10:29:16.513Z,97843.09
2017-12-27T10:31:47.896Z,97841.77
2017-12-27T10:34:17.758Z,97846.65
2017-12-27T10:36:47.019Z,97837.41
2017-12-27T10:39:15.281Z,97828.05
2017-12-27T10:41:43.018Z,97831.98
2017-12-27T10:44:16.577Z,97827.28
2017-12-27T10:46:44.510Z,97822.38
2017-12-27T10:49:12.902Z,97822.93
2017-12-27T10:51:47.523Z,97804.36
2017-12-27T10:54:15.749Z,97822.29
2017-12-27T10:56:45.475Z,97817.69
2017-12-27T10:59:15.712Z,97818.70
2017-12-27T11:01:45.441Z,97809.25
2017-12-27T11:04:16.541Z,97819.88
2017-12-27T11:06:48.135Z,97818.64
2017-12-27T11:09:17.715Z,97814.35
2017-12-27T11:11:46.397Z,97812.09
2017-12-27T11:14:14.324Z,97819.08
2017-12-27T11:16:43.554Z,97817.19
2017-12-27T11:19:11.802Z,97820.56
2017-12-27T11:21:43.555Z,97813.86
2017-12-27T11:24:11.210Z,97814.19
2017-12-27T11:26:39.725Z,97813.58
2017-12-27T11:29:07.352Z,97805.78
2017-12-27T11:31:39.568Z,97803.83
2017-12-27T11:34:07.484Z,97797.89
2017-12-27T11:39:17.551Z,97798.47
2017-12-27T11:41:46.938Z,97792.84
2017-12-27T11:44:16.603Z,97794.44
2017-12-27T11:46:46.538Z,97802.05
2017-12-27T11:49:14.890Z,97794.92
2017-12-27T11:51:43.849Z,97790.00
2017-12-27T11:54:13.698Z,97795.66
2017-12-27T11:56:44.582Z,97791.06
2017-12-27T11:59:12.883Z,97786.44
2017-12-27T12:01:40.498Z,97784.00
2017-12-27T12:04:09.361Z,97781.41
2017-12-27T12:06:38.553Z,97779.39
2017-12-27T12:09:06.160Z,97773.98
2017-12-27T12:11:35.281Z,97772.91
2017-12-27T12:14:02.869Z,97770.02
2017-12-27T12:16:31.497Z,97765.71
2017-12-27T12:18:59.863Z,97763.35
2017-12-27T12:21:29.397Z,97760.63
2017-12-27T12:23:59.313Z,97751.70
2017-12-27T12:26:30.548Z,97756.36
2017-12-27T12:29:00.037Z,97747.59
2017-12-27T12:31:28.562Z,97746.72
2017-12-27T12:33:56.151Z,97739.05
2017-12-27T12:36:23.770Z,97738.27
2017-12-27T12:38:54.958Z,97734.84
2017-12-27T12:41:23.002Z,97732.23
2017-12-27T12:43:53.030Z,97733.56
2017-12-27T12:46:22.852Z,97730.14
2017-12-27T12:48:52.293Z,97733.11
2017-12-27T12:51:21.402Z,97728.64
2017-12-27T12:53:48.999Z,97729.57
2017-12-27T12:56:18.038Z,97734.20
2017-12-27T12:58:46.663Z,97732.88
2017-12-27T13:01:15.107Z,97723.07
2017-12-27T13:03:46.925Z,97721.05
2017-12-27T13:06:15.190Z,97715.64
2017-12-27T13:08:44.598Z,97709.91
2017-12-27T13:11:15.769Z,97715.64
2017-12-27T13:13:45.939Z,97715.00
2017-12-27T13:16:13.712Z,97717.13
2017-12-27T13:18:44.198Z,97720.48
2017-12-27T13:21:14.205Z,97724.96
2017-12-27T13:23:43.378Z,97726.13
2017-12-27T13:26:14.154Z,97713.75
2017-12-27T13:28:42.146Z,97715.56
2017-12-27T13:31:10.812Z,97713.52
2017-12-27T13:33:39.213Z,97710.09
2017-12-27T13:36:09.243Z,97713.61
2017-12-27T13:38:39.728Z,97719.02
2017-12-27T13:41:07.442Z,97710.94
2017-12-27T13:43:38.726Z,97716.22
2017-12-27T13:46:07.205Z,97712.43
2017-12-27T13:48:36.971Z,97714.80
2017-12-27T13:51:06.050Z,97713.08
2017-12-27T13:53:34.877Z,97716.53
2017-12-27T13:56:04.620Z,97716.50
2017-12-27T13:58:35.596Z,97717.75
2017-12-27T14:01:07.985Z,97712.83
2017-12-27T14:03:37.627Z,97713.03
2017-12-27T14:06:07.018Z,97713.59
2017-12-27T14:08:35.787Z,97710.22
2017-12-27T14:11:07.799Z,97712.67
2017-12-27T14:13:36.322Z,97716.30
2017-12-27T14:16:05.390Z,97723.53
2017-12-27T14:18:37.693Z,97729.42
2017-12-27T14:21:06.936Z,97730.34
2017-12-27T14:23:34.589Z,97728.24
2017-12-27T14:26:05.777Z,97724.81
2017-12-27T14:28:36.533Z,97732.80
2017-12-27T14:31:06.846Z,97733.36
2017-12-27T14:33:35.575Z,97728.43
2017-12-27T14:36:03.610Z,97735.84
2017-12-27T14:38:33.673Z,97736.76
2017-12-27T14:41:01.307Z,97743.61
2017-12-27T14:43:31.660Z,97750.03
2017-12-27T14:46:00.791Z,97741.77
2017-12-27T14:48:30.320Z,97747.03
2017-12-27T14:51:00.619Z,97752.63
2017-12-27T14:53:30.975Z,97756.09
2017-12-27T14:55:59.717Z,97758.44
2017-12-27T14:58:27.334Z,97758.78
2017-12-27T15:01:00.891Z,97764.56
2017-12-27T15:03:29.749Z,97764.93
2017-12-27T15:05:58.890Z,97760.95
2017-12-27T15:08:27.271Z,97763.20
2017-12-27T15:10:56.071Z,97770.33
2017-12-27T15:13:24.671Z,97773.02
2017-12-27T15:15:54.190Z,97773.52
2017-12-27T15:18:24.424Z,97776.43
2017-12-27T15:20:52.854Z,97775.94
2017-12-27T15:23:20.433Z,97772.81
2017-12-27T15:25:48.096Z,97760.44
2017-12-27T15:28:16.528Z,97758.73
2017-12-27T15:30:44.966Z,97755.92
2017-12-27T15:33:13.358Z,97758.71
2017-12-27T15:35:42.154Z,97763.89
2017-12-27T15:38:13.170Z,97765.30
2017-12-27T15:40:42.430Z,97768.83
2017-12-27T15:43:19.362Z,97767.80
2017-12-27T15:45:46.960Z,97761.13
2017-12-27T15:48:16.521Z,97769.12
2017-12-27T15:50:46.091Z,97767.17
2017-12-27T15:53:15.538Z,97773.66
2017-12-27T15:55:46.110Z,97773.11
2017-12-27T15:58:14.446Z,97768.16
2017-12-27T16:00:42.063Z,97772.94
2017-12-27T16:03:10.817Z,97776.72
2017-12-27T16:05:39.439Z,97786.83
2017-12-27T16:08:07.971Z,97792.13
2017-12-27T16:10:36.964Z,97790.81
2017-12-27T16:13:05.563Z,97792.70
2017-12-27T16:15:35.566Z,97790.73
2017-12-27T16:18:05.245Z,97793.95
2017-12-27T16:20:34.306Z,97795.13
2017-12-27T16:23:02.778Z,97790.18
2017-12-27T16:25:30.879Z,97795.67
2017-12-27T16:28:04.022Z,97798.98
2017-12-27T16:30:32.607Z,97795.84
2017-12-27T16:33:00.239Z,97797.63
2017-12-27T16:35:30.490Z,97798.03
2017-12-27T16:40:33.408Z,97806.72
2017-12-27T16:43:01.291Z,97807.28
2017-12-27T16:45:30.582Z,97811.43
2017-12-27T16:47:58.943Z,97814.88
2017-12-27T16:50:30.959Z,97813.95
2017-12-27T16:53:01.353Z,97819.92
2017-12-27T16:55:31.683Z,97818.59
2017-12-27T16:57:59.322Z,97822.67
2017-12-27T17:00:27.674Z,97820.45
2017-12-27T17:02:55.337Z,97820.28
2017-12-27T17:05:22.952Z,97824.98
2017-12-27T17:07:56.366Z,97828.05
2017-12-27T17:10:24.198Z,97830.13
2017-12-27T17:12:52.519Z,97827.00
2017-12-27T17:15:22.982Z,97831.06
2017-12-27T17:17:51.382Z,97834.20
2017-12-27T17:20:19.005Z,97830.34
2017-12-27T17:22:51.053Z,97834.16
2017-12-27T17:25:22.414Z,97831.45
2017-12-27T17:27:51.719Z,97837.61
2017-12-27T17:30:19.965Z,97842.91
2017-12-27T17:32:56.510Z,97840.70
2017-12-27T17:35:26.491Z,97841.50
2017-12-27T17:37:54.114Z,97850.73
2017-12-27T17:40:22.145Z,97851.28
2017-12-27T17:42:52.970Z,97848.41
2017-12-27T17:45:22.476Z,97853.48
2017-12-27T17:47:51.778Z,97851.59
2017-12-27T17:50:23.837Z,97851.75
2017-12-27T17:52:54.183Z,97841.27
2017-12-27T17:55:22.438Z,97846.42
2017-12-27T17:57:52.557Z,97846.83
2017-12-27T18:00:21.808Z,97857.14
2017-12-27T18:02:56.214Z,97859.64
2017-12-27T18:05:28.604Z,97856.30
2017-12-27T18:07:57.314Z,97856.27
2017-12-27T18:10:26.786Z,97863.39
2017-12-27T18:12:54.980Z,97868.16
2017-12-27T18:15:23.378Z,97876.95
2017-12-27T18:17:51.895Z,97872.94
2017-12-27T18:20:20.453Z,97877.23
2017-12-27T18:22:48.023Z,97878.66
2017-12-27T18:25:15.653Z,97880.27
2017-12-27T18:27:43.985Z,97872.75
2017-12-27T18:30:13.775Z,97875.09
2017-12-27T18:32:44.362Z,97878.23
2017-12-27T18:35:12.686Z,97889.83
2017-12-27T18:37:45.870Z,97888.16
2017-12-27T18:40:13.510Z,97886.37
2017-12-27T18:42:42.520Z,97897.26
2017-12-27T18:45:11.025Z,97900.62
2017-12-27T18:47:39.706Z,97897.34
2017-12-27T18:50:08.560Z,97904.61
2017-12-27T18:52:38.056Z,97906.97
2017-12-27T18:55:06.074Z,97909.78
2017-12-27T18:57:34.863Z,97913.92
2017-12-27T19:00:04.106Z,97913.99
2017-12-27T19:02:32.575Z,97912.66
2017-12-27T19:05:02.130Z,97912.91
2017-12-27T19:07:39.673Z,97917.05
2017-12-27T19:10:08.838Z,97916.90
2017-12-27T19:12:39.474Z,97916.34
2017-12-27T19:15:09.825Z,97921.05
2017-12-27T19:17:39.138Z,97921.76
2017-12-27T19:20:08.904Z,97922.94
2017-12-27T19:22:37.290Z,97926.61
2017-12-27T19:25:06.059Z,97934.69
2017-12-27T19:27:34.910Z,97932.27
2017-12-27T19:30:05.310Z,97941.67
2017-12-27T19:32:34.872Z,97948.89
2017-12-27T19:35:04.000Z,97950.25
2017-12-27T19:37:34.122Z,97948.76
2017-12-27T19:40:03.207Z,97955.16
2017-12-27T19:42:30.890Z,97948.76
2017-12-27T19:44:58.538Z,97955.72
2017-12-27T19:47:26.909Z,97954.64
2017-12-27T19:49:57.276Z,97964.48
2017-12-27T19:52:24.989Z,97962.69
2017-12-27T19:54:53.627Z,97959.00
2017-12-27T19:57:22.458Z,97964.30
2017-12-27T19:59:52.100Z,97960.98
2017-12-27T20:02:20.860Z,97969.19
2017-12-27T20:04:49.323Z,97962.75
2017-12-27T20:07:18.013Z,97966.47
2017-12-27T20:09:48.042Z,97972.44
2017-12-27T20:12:16.634Z,97971.26
2017-12-27T20:14:44.934Z,97971.31
2017-12-27T20:17:14.188Z,97982.42
2017-12-27T20:19:42.057Z,97985.73
2017-12-27T20:22:10.439Z,97992.70
2017-12-27T20:24:39.145Z,97999.91
2017-12-27T20:27:11.321Z,97999.94
2017-12-27T20:29:40.498Z,98005.82
2017-12-27T20:32:10.011Z,98006.59
2017-12-27T20:34:39.575Z,98005.92
2017-12-27T20:37:07.984Z,98011.70
2017-12-27T20:39:36.468Z,98016.09
2017-12-27T20:42:05.170Z,98017.34
2017-12-27T20:44:35.306Z,98029.61
2017-12-27T20:47:05.018Z,98034.37
2017-12-27T20:49:33.629Z,98033.35
2017-12-27T20:52:04.578Z,98039.61
2017-12-27T20:54:34.845Z,98042.78
2017-12-27T20:57:04.275Z,98049.39
2017-12-27T20:59:34.976Z,98056.87
2017-12-27T21:02:03.505Z,98051.66
2017-12-27T21:04:31.751Z,98065.33
2017-12-27T21:07:00.865Z,98069.52
2017-12-27T21:09:30.533Z,98077.84
2017-12-27T21:12:02.560Z,98084.38
2017-12-27T21:14:30.965Z,98089.34
2017-12-27T21:16:59.887Z,98089.90
2017-12-27T21:19:29.309Z,98091.88
2017-12-27T21:21:56.958Z,98098.38
2017-12-27T21:24:25.247Z,98112.81
2017-12-27T21:26:54.421Z,98106.67
2017-12-27T21:29:23.382Z,98112.41
2017-12-27T21:31:54.568Z,98108.39
2017-12-27T21:34:24.009Z,98120.14
2017-12-27T21:36:53.142Z,98118.56
2017-12-27T21:39:21.402Z,98118.86
2017-12-27T21:41:49.722Z,98126.01
2017-12-27T21:44:17.970Z,98131.89
2017-12-27T21:46:46.519Z,98136.27
2017-12-27T21:49:21.014Z,98137.41
2017-12-27T21:51:49.992Z,98131.42
2017-12-27T21:54:19.109Z,98133.78
2017-12-27T21:56:47.677Z,98140.13
2017-12-27T21:59:21.321Z,98153.86
2017-12-27T22:01:51.288Z,98149.06
2017-12-27T22:04:22.286Z,98149.41
2017-12-27T22:06:50.086Z,98151.81
2017-12-27T22:09:17.685Z,98159.22
2017-12-27T22:11:46.423Z,98168.96
2017-12-27T22:14:28.964Z,98173.48
2017-12-27T22:16:56.633Z,98176.12
2017-12-27T22:19:25.438Z,98190.67
2017-12-27T22:21:53.842Z,98192.00
2017-12-27T22:24:24.136Z,98188.38
2017-12-27T22:26:53.101Z,98191.53
2017-12-27T22:29:21.810Z,98193.34
2017-12-27T22:31:54.142Z,98195.56
2017-12-27T22:34:22.661Z,98206.67
2017-12-27T22:36:51.128Z,98211.02
2017-12-27T22:39:19.458Z,98202.60
2017-12-27T22:41:52.041Z,98208.95
2017-12-27T22:44:19.647Z,98211.45
2017-12-27T22:46:48.734Z,98224.66
2017-12-27T22:49:19.613Z,98216.98
2017-12-27T22:51:48.225Z,98225.33
2017-12-27T22:54:18.084Z,98225.92
2017-12-27T22:56:46.522Z,98226.80
2017-12-27T22:59:15.678Z,98230.61
2017-12-27T23:01:44.005Z,98234.83
2017-12-27T23:04:14.018Z,98237.71
2017-12-27T23:06:45.420Z,98245.20
2017-12-27T23:09:15.085Z,98251.44
2017-12-27T23:11:47.302Z,98271.21
2017-12-27T23:14:15.817Z,98271.95
2017-12-27T23:16:46.031Z,98269.92
2017-12-27T23:19:14.597Z,98276.05
2017-12-27T23:21:42.246Z,98278.52
2017-12-27T23:24:09.871Z,98280.02
2017-12-27T23:26:39.638Z,98299.13
2017-12-27T23:29:07.250Z,98300.88
2017-12-27T23:31:34.953Z,98311.53
2017-12-27T23:34:03.429Z,98309.23
2017-12-27T23:36:31.950Z,98324.59
2017-12-27T23:39:00.650Z,98341.88
2017-12-27T23:41:29.107Z,98337.50
2017-12-27T23:43:57.565Z,98342.00
2017-12-27T23:46:27.136Z,98355.95
2017-12-27T23:49:00.173Z,98360.24
2017-12-27T23:51:32.208Z,98365.76
2017-12-27T23:54:00.506Z,98372.14
2017-12-27T23:56:28.874Z,98382.55
2017-12-27T23:58:57.277Z,98387.11
